sim
Sign-in with your pilot id or email,
or register
Callsign
Passwort

Schedule Details

Flight Number: OEC321
Departure: Dusseldorf International Airport (EDDL) at Time
Arrival: Fuerteventura Airport (GCFV) at Time

Weather Information
Getting current METAR information for EDDL 172220Z 16010KT 9999 -RA SCT023 19/17 Q1007 BECMG RA
Getting current METAR information for GCFV 172230Z AUTO 03004KT 7000 NSC 24/20 Q1014

Schedule Frequency

Route Map